createdAt,value
2018-06-24T00:00:51.337Z,6.67
2018-06-24T00:03:26.528Z,6.07
2018-06-24T00:06:02.342Z,7.03
2018-06-24T00:08:39.305Z,7.03
2018-06-24T00:11:11.902Z,6.13
2018-06-24T00:13:47.775Z,6.27
2018-06-24T00:16:20.335Z,5.37
2018-06-24T00:18:53.198Z,6.43
2018-06-24T00:21:27.267Z,6.63
2018-06-24T00:23:59.998Z,8.07
2018-06-24T00:26:33.140Z,6.73
2018-06-24T00:29:06.083Z,7.77
2018-06-24T00:31:38.884Z,7.53
2018-06-24T00:34:11.418Z,7.33
2018-06-24T00:36:44.689Z,7.37
2018-06-24T00:39:18.509Z,5.23
2018-06-24T00:41:50.949Z,6.73
2018-06-24T00:44:24.132Z,6.70
2018-06-24T00:46:57.405Z,7.10
2018-06-24T00:49:30.466Z,7.20
2018-06-24T00:52:03.431Z,7.40
2018-06-24T00:54:38.410Z,7.20
2018-06-24T00:57:10.993Z,7.80
2018-06-24T01:00:05.947Z,6.30
2018-06-24T01:02:39.177Z,6.60
2018-06-24T01:05:12.650Z,7.47
2018-06-24T01:07:48.985Z,8.13
2018-06-24T01:10:21.971Z,7.10
2018-06-24T01:12:54.515Z,6.62
2018-06-24T01:15:28.990Z,6.43
2018-06-24T01:18:01.709Z,5.83
2018-06-24T01:20:34.622Z,6.73
2018-06-24T01:23:08.938Z,6.53
2018-06-24T01:25:43.484Z,8.53
2018-06-24T01:28:20.230Z,8.70
2018-06-24T01:30:53.876Z,8.87
2018-06-24T01:33:26.755Z,7.30
2018-06-24T01:36:01.104Z,7.40
2018-06-24T01:38:33.909Z,7.70
2018-06-24T01:41:08.397Z,7.87
2018-06-24T01:43:42.215Z,6.57
2018-06-24T01:46:14.822Z,6.43
2018-06-24T01:48:47.400Z,6.43
2018-06-24T01:51:21.306Z,6.20
2018-06-24T01:53:54.529Z,5.97
2018-06-24T01:56:28.729Z,5.57
2018-06-24T01:59:01.586Z,5.90
2018-06-24T02:01:35.161Z,6.37
2018-06-24T02:04:08.081Z,6.18
2018-06-24T02:06:41.317Z,5.90
2018-06-24T02:09:13.817Z,7.10
2018-06-24T02:11:46.366Z,6.40
2018-06-24T02:14:21.166Z,7.27
2018-06-24T02:16:56.816Z,7.73
2018-06-24T02:19:31.088Z,7.43
2018-06-24T02:22:05.013Z,7.33
2018-06-24T02:24:37.876Z,7.67
2018-06-24T02:27:10.596Z,7.07
2018-06-24T02:29:43.671Z,6.80
2018-06-24T02:32:17.042Z,6.53
2018-06-24T02:34:49.664Z,7.30
2018-06-24T02:37:22.456Z,6.77
2018-06-24T02:39:55.870Z,6.43
2018-06-24T02:42:28.579Z,6.73
2018-06-24T02:45:05.392Z,9.35
2018-06-24T02:47:38.434Z,8.10
2018-06-24T02:50:12.230Z,9.63
2018-06-24T02:52:45.125Z,8.70
2018-06-24T02:55:18.773Z,7.93
2018-06-24T02:57:56.158Z,8.30
2018-06-24T03:00:34.493Z,7.17
2018-06-24T03:03:07.371Z,9.30
2018-06-24T03:05:43.011Z,7.33
2018-06-24T03:08:15.809Z,8.10
2018-06-24T03:10:53.557Z,7.53
2018-06-24T03:13:27.670Z,8.75
2018-06-24T03:16:00.873Z,9.77
2018-06-24T03:18:35.685Z,11.73
2018-06-24T03:21:09.827Z,7.73
2018-06-24T03:23:42.424Z,8.20
2018-06-24T03:26:15.022Z,8.93
2018-06-24T03:28:47.730Z,8.63
2018-06-24T03:31:20.330Z,8.47
2018-06-24T03:33:52.949Z,10.10
2018-06-24T03:36:25.896Z,8.03
2018-06-24T03:38:58.780Z,7.97
2018-06-24T03:41:32.056Z,7.90
2018-06-24T03:44:05.331Z,8.67
2018-06-24T03:46:39.297Z,9.07
2018-06-24T03:49:11.928Z,10.07
2018-06-24T03:51:44.856Z,11.67
2018-06-24T03:54:17.464Z,12.00
2018-06-24T03:56:50.247Z,13.73
2018-06-24T03:59:23.294Z,13.57
2018-06-24T04:01:55.828Z,16.73
2018-06-24T04:04:30.364Z,17.58
2018-06-24T04:07:03.458Z,17.73
2018-06-24T04:09:36.753Z,18.40
2018-06-24T04:12:09.669Z,17.07
2018-06-24T04:14:42.584Z,17.97
2018-06-24T04:17:15.118Z,16.33
2018-06-24T04:19:47.520Z,15.43
2018-06-24T04:22:20.349Z,18.50
2018-06-24T04:24:54.007Z,20.77
2018-06-24T04:27:26.499Z,21.33
2018-06-24T04:30:00.587Z,17.37
2018-06-24T04:32:36.710Z,16.67
2018-06-24T04:35:09.345Z,20.10
2018-06-24T04:37:42.333Z,16.47
2018-06-24T04:40:14.932Z,16.23
2018-06-24T04:42:48.764Z,15.83
2018-06-24T04:45:22.657Z,14.67
2018-06-24T04:47:55.297Z,13.23
2018-06-24T04:50:27.964Z,11.37
2018-06-24T04:53:01.897Z,12.40
2018-06-24T04:55:34.843Z,12.20
2018-06-24T04:58:07.723Z,12.70
2018-06-24T05:00:41.201Z,14.10
2018-06-24T05:03:15.122Z,14.40
2018-06-24T05:05:48.831Z,18.45
2018-06-24T05:08:23.878Z,17.00
2018-06-24T05:10:56.257Z,14.57
2018-06-24T05:13:29.668Z,13.30
2018-06-24T05:16:02.448Z,15.23
2018-06-24T05:18:35.620Z,13.90
2018-06-24T05:21:08.256Z,12.70
2018-06-24T05:23:42.015Z,12.10
2018-06-24T05:26:16.236Z,11.83
2018-06-24T05:28:48.790Z,10.87
2018-06-24T05:31:24.387Z,9.70
2018-06-24T05:33:57.677Z,9.27
2018-06-24T05:36:30.212Z,9.17
2018-06-24T05:39:04.912Z,8.10
2018-06-24T05:41:37.795Z,7.67
2018-06-24T05:44:10.488Z,7.10
2018-06-24T05:46:44.778Z,7.30
2018-06-24T05:49:17.456Z,7.05
2018-06-24T05:51:50.347Z,6.68
2018-06-24T05:54:25.360Z,5.90
2018-06-24T05:56:57.864Z,5.20
2018-06-24T05:59:30.364Z,4.70
2018-06-24T06:02:03.228Z,4.80
2018-06-24T06:04:36.348Z,4.60
2018-06-24T06:07:09.073Z,4.50
2018-06-24T06:09:42.797Z,4.67
2018-06-24T06:12:15.836Z,4.77
2018-06-24T06:14:48.634Z,4.40
2018-06-24T06:17:23.319Z,4.90
2018-06-24T06:19:55.961Z,4.00
2018-06-24T06:22:28.811Z,4.43
2018-06-24T06:25:04.053Z,4.00
2018-06-24T06:27:36.902Z,3.63
2018-06-24T06:30:13.613Z,3.60
2018-06-24T06:32:46.653Z,4.20
2018-06-24T06:35:21.703Z,3.70
2018-06-24T06:37:54.905Z,3.40
2018-06-24T06:40:27.442Z,3.43
2018-06-24T06:43:07.593Z,3.57
2018-06-24T06:45:41.946Z,3.33
2018-06-24T06:48:15.812Z,3.30
2018-06-24T06:50:48.584Z,3.70
2018-06-24T06:53:21.307Z,3.50
2018-06-24T06:55:54.238Z,3.40
2018-06-24T06:58:29.476Z,3.80
2018-06-24T07:01:02.912Z,3.53
2018-06-24T07:03:42.746Z,3.03
2018-06-24T07:06:17.097Z,3.23
2018-06-24T07:08:49.508Z,3.53
2018-06-24T07:11:24.196Z,3.43
2018-06-24T07:13:56.765Z,3.43
2018-06-24T07:16:29.214Z,3.90
2018-06-24T07:19:04.413Z,3.97
2018-06-24T07:21:38.819Z,4.70
2018-06-24T07:24:15.323Z,4.53
2018-06-24T07:26:48.460Z,4.43
2018-06-24T07:29:20.989Z,4.20
2018-06-24T07:31:53.408Z,4.40
2018-06-24T07:34:32.599Z,5.30
2018-06-24T07:37:11.380Z,5.07
2018-06-24T07:39:49.905Z,5.30
2018-06-24T07:42:24.360Z,5.63
2018-06-24T07:44:59.417Z,6.20
2018-06-24T07:47:34.892Z,6.03
2018-06-24T07:50:10.470Z,6.27
2018-06-24T07:52:45.326Z,6.57
2018-06-24T07:55:18.493Z,5.57
2018-06-24T07:57:51.956Z,6.32
2018-06-24T08:00:35.171Z,6.03
2018-06-24T08:03:10.588Z,6.40
2018-06-24T08:05:43.892Z,5.70
2018-06-24T08:08:19.669Z,5.87
2018-06-24T08:10:52.108Z,5.97
2018-06-24T08:13:35.743Z,6.00
2018-06-24T08:16:09.971Z,5.73
2018-06-24T08:18:50.126Z,6.37
2018-06-24T08:21:23.701Z,5.00
2018-06-24T08:23:56.941Z,4.90
2018-06-24T08:26:32.728Z,4.90
2018-06-24T08:29:05.331Z,5.87
2018-06-24T08:31:43.687Z,4.90
2018-06-24T08:34:16.257Z,5.43
2018-06-24T08:36:50.039Z,4.60
2018-06-24T08:39:23.084Z,5.17
2018-06-24T08:41:56.485Z,4.73
2018-06-24T08:44:48.148Z,4.87
2018-06-24T08:47:24.603Z,4.97
2018-06-24T08:49:57.856Z,4.13
2018-06-24T08:52:34.737Z,3.97
2018-06-24T08:55:09.963Z,4.93
2018-06-24T08:57:43.621Z,4.00
2018-06-24T09:00:18.611Z,3.63
2018-06-24T09:02:52.708Z,4.50
2018-06-24T09:05:32.480Z,4.30
2018-06-24T09:08:06.390Z,3.57
2018-06-24T09:10:40.843Z,3.75
2018-06-24T09:13:17.522Z,3.97
2018-06-24T09:15:53.280Z,3.50
2018-06-24T09:18:28.877Z,3.80
2018-06-24T09:21:05.508Z,4.43
2018-06-24T09:23:41.873Z,3.90
2018-06-24T09:26:18.501Z,4.13
2018-06-24T09:28:53.613Z,4.27
2018-06-24T09:31:28.709Z,3.67
2018-06-24T09:34:05.668Z,3.77
2018-06-24T09:36:45.086Z,4.67
2018-06-24T09:39:18.970Z,4.80
2018-06-24T09:41:53.190Z,3.67
2018-06-24T09:44:26.316Z,4.13
2018-06-24T09:47:00.612Z,4.33
2018-06-24T09:49:36.710Z,4.67
2018-06-24T09:52:13.013Z,4.43
2018-06-24T09:54:49.071Z,5.40
2018-06-24T09:57:22.820Z,5.30
2018-06-24T10:00:21.216Z,5.80
2018-06-24T10:02:57.005Z,5.93
2018-06-24T10:05:29.669Z,5.07
2018-06-24T10:08:02.553Z,5.93
2018-06-24T10:10:39.976Z,5.57
2018-06-24T10:13:12.950Z,5.17
2018-06-24T10:15:52.490Z,5.30
2018-06-24T10:18:25.141Z,5.80
2018-06-24T10:21:02.063Z,4.43
2018-06-24T10:23:38.855Z,5.50
2018-06-24T10:26:17.970Z,5.60
2018-06-24T10:28:57.956Z,5.70
2018-06-24T10:31:31.288Z,6.40
2018-06-24T10:34:10.624Z,6.37
2018-06-24T10:36:45.951Z,5.03
2018-06-24T10:39:22.696Z,5.27
2018-06-24T10:41:57.844Z,5.30
2018-06-24T10:44:31.386Z,4.83
2018-06-24T10:47:13.180Z,4.50
2018-06-24T10:50:06.071Z,4.73
2018-06-24T10:52:39.833Z,5.00
2018-06-24T10:55:26.417Z,4.70
2018-06-24T10:58:00.664Z,5.55
2018-06-24T11:00:40.458Z,4.60
2018-06-24T11:03:20.141Z,4.13
2018-06-24T11:06:06.476Z,3.73
2018-06-24T11:08:41.049Z,4.10
2018-06-24T11:11:17.180Z,4.47
2018-06-24T11:14:01.473Z,3.87
2018-06-24T11:16:36.594Z,3.93
2018-06-24T11:19:12.118Z,3.63
2018-06-24T11:21:53.301Z,3.90
2018-06-24T11:24:27.433Z,3.40
2018-06-24T11:27:05.609Z,3.40
2018-06-24T11:29:40.812Z,3.00
2018-06-24T11:32:18.835Z,3.67
2018-06-24T11:34:59.166Z,3.65
2018-06-24T11:37:33.801Z,4.10
2018-06-24T11:40:08.542Z,3.33
2018-06-24T11:42:42.930Z,3.33
2018-06-24T11:45:16.061Z,3.30
2018-06-24T11:47:55.333Z,3.40
2018-06-24T11:50:37.618Z,2.83
2018-06-24T11:53:10.930Z,2.70
2018-06-24T11:55:50.876Z,3.30
2018-06-24T11:58:26.678Z,2.50
2018-06-24T12:01:05.470Z,2.70
2018-06-24T12:03:40.457Z,3.20
2018-06-24T12:06:20.045Z,2.60
2018-06-24T12:08:54.246Z,2.30
2018-06-24T12:11:33.037Z,2.93
2018-06-24T12:14:11.202Z,2.40
2018-06-24T12:16:47.142Z,2.80
2018-06-24T12:19:27.592Z,2.80
2018-06-24T12:22:11.610Z,2.80
2018-06-24T12:24:46.743Z,2.87
2018-06-24T12:27:28.385Z,3.27
2018-06-24T12:30:10.183Z,2.97
2018-06-24T12:32:46.486Z,3.50
2018-06-24T12:35:26.197Z,2.72
2018-06-24T12:38:04.189Z,3.00
2018-06-24T12:40:40.176Z,3.20
2018-06-24T12:43:24.304Z,2.73
2018-06-24T12:46:01.910Z,3.30
2018-06-24T12:48:41.744Z,3.40
2018-06-24T12:51:19.008Z,2.87
2018-06-24T12:54:02.031Z,2.77
2018-06-24T12:56:41.701Z,3.27
2018-06-24T12:59:24.842Z,3.87
2018-06-24T13:02:17.992Z,3.77
2018-06-24T13:04:58.205Z,2.90
2018-06-24T13:07:37.801Z,3.07
2018-06-24T13:10:15.101Z,3.03
2018-06-24T13:12:50.366Z,3.10
2018-06-24T13:15:27.896Z,3.57
2018-06-24T13:18:07.944Z,3.40
2018-06-24T13:20:43.002Z,2.97
2018-06-24T13:23:29.812Z,2.90
2018-06-24T13:26:12.643Z,3.28
2018-06-24T13:28:46.945Z,2.50
2018-06-24T13:31:31.030Z,2.50
2018-06-24T13:34:13.621Z,3.00
2018-06-24T13:36:48.875Z,3.43
2018-06-24T13:39:30.714Z,3.37
2018-06-24T13:42:14.977Z,4.10
2018-06-24T13:44:49.730Z,3.50
2018-06-24T13:47:28.234Z,3.50
2018-06-24T13:50:11.997Z,3.40
2018-06-24T13:52:54.353Z,2.90
2018-06-24T13:55:29.510Z,3.70
2018-06-24T13:58:05.023Z,3.40
2018-06-24T14:00:46.496Z,3.50
2018-06-24T14:03:26.458Z,3.00
2018-06-24T14:06:02.297Z,3.37
2018-06-24T14:08:36.095Z,3.07
2018-06-24T14:11:21.568Z,4.80
2018-06-24T14:13:57.900Z,4.40
2018-06-24T14:16:41.130Z,4.50
2018-06-24T14:19:22.148Z,5.20
2018-06-24T14:21:57.312Z,4.47
2018-06-24T14:24:33.603Z,4.60
2018-06-24T14:27:12.289Z,5.60
2018-06-24T14:29:53.658Z,5.70
2018-06-24T14:32:27.690Z,5.73
2018-06-24T14:35:02.838Z,5.70
2018-06-24T14:37:42.364Z,7.10
2018-06-24T14:40:21.424Z,7.77
2018-06-24T14:42:57.773Z,6.60
2018-06-24T14:45:35.796Z,5.37
2018-06-24T14:48:19.161Z,5.73
2018-06-24T14:50:58.839Z,5.93
2018-06-24T14:53:34.843Z,5.67
2018-06-24T14:56:18.207Z,5.07
2018-06-24T14:58:56.568Z,5.37
2018-06-24T15:01:35.868Z,5.97
2018-06-24T15:04:19.177Z,5.47
2018-06-24T15:06:54.498Z,5.43
2018-06-24T15:09:29.005Z,4.97
2018-06-24T15:12:03.188Z,4.87
2018-06-24T15:14:40.741Z,5.43
2018-06-24T15:17:17.594Z,5.35
2018-06-24T15:19:53.526Z,5.93
2018-06-24T15:22:28.704Z,4.77
2018-06-24T15:25:08.713Z,4.53
2018-06-24T15:27:42.860Z,4.00
2018-06-24T15:30:18.824Z,3.77
2018-06-24T15:33:00.878Z,4.07
2018-06-24T15:35:36.869Z,4.57
2018-06-24T15:38:20.028Z,4.53
2018-06-24T15:40:58.429Z,4.80
2018-06-24T15:43:35.075Z,4.30
2018-06-24T15:46:18.402Z,3.80
2018-06-24T15:48:53.946Z,3.80
2018-06-24T15:51:29.766Z,3.60
2018-06-24T15:54:06.168Z,3.92
2018-06-24T15:56:41.665Z,3.22
2018-06-24T15:59:22.296Z,3.60
2018-06-24T16:01:58.047Z,3.00
2018-06-24T16:04:35.790Z,3.57
2018-06-24T16:07:28.590Z,4.47
2018-06-24T16:10:04.330Z,3.80
2018-06-24T16:12:45.316Z,4.68
2018-06-24T16:15:25.343Z,5.27
2018-06-24T16:18:03.764Z,5.47
2018-06-24T16:20:42.475Z,5.57
2018-06-24T16:23:18.851Z,4.70
2018-06-24T16:25:58.153Z,4.40
2018-06-24T16:28:36.317Z,4.30
2018-06-24T16:31:15.369Z,4.63
2018-06-24T16:33:51.404Z,5.00
2018-06-24T16:36:27.708Z,4.67
2018-06-24T16:39:12.969Z,4.43
2018-06-24T16:41:46.816Z,3.70
2018-06-24T16:44:22.637Z,3.35
2018-06-24T16:47:04.383Z,2.67
2018-06-24T16:49:42.985Z,2.97
2018-06-24T16:52:18.787Z,2.57
2018-06-24T16:54:52.495Z,2.90
2018-06-24T16:57:30.002Z,3.07
2018-06-24T17:00:06.750Z,2.80
2018-06-24T17:02:41.305Z,2.67
2018-06-24T17:05:20.262Z,3.00
2018-06-24T17:07:55.723Z,2.40
2018-06-24T17:10:29.349Z,2.60
2018-06-24T17:13:03.288Z,2.40
2018-06-24T17:15:37.925Z,2.60
2018-06-24T17:18:13.094Z,2.77
2018-06-24T17:20:49.897Z,3.20
2018-06-24T17:23:25.387Z,2.63
2018-06-24T17:26:00.616Z,2.87
2018-06-24T17:28:35.018Z,2.73
2018-06-24T17:31:22.471Z,3.20
2018-06-24T17:33:58.686Z,2.47
2018-06-24T17:36:34.030Z,3.10
2018-06-24T17:39:17.047Z,3.17
2018-06-24T17:41:53.148Z,3.03
2018-06-24T17:44:31.725Z,3.57
2018-06-24T17:47:11.720Z,2.90
2018-06-24T17:49:46.868Z,3.47
2018-06-24T17:52:20.726Z,3.23
2018-06-24T17:54:56.800Z,3.00
2018-06-24T17:57:32.603Z,3.50
2018-06-24T18:00:08.390Z,3.43
2018-06-24T18:02:48.408Z,3.40
2018-06-24T18:05:27.842Z,3.67
2018-06-24T18:08:04.197Z,2.87
2018-06-24T18:10:37.289Z,3.10
2018-06-24T18:13:11.590Z,2.90
2018-06-24T18:15:46.104Z,2.97
2018-06-24T18:18:21.960Z,3.10
2018-06-24T18:20:56.736Z,3.30
2018-06-24T18:23:30.022Z,3.27
2018-06-24T18:26:05.452Z,3.03
2018-06-24T18:28:38.897Z,2.80
2018-06-24T18:31:14.627Z,2.93
2018-06-24T18:33:48.813Z,3.47
2018-06-24T18:36:28.486Z,3.30
2018-06-24T18:39:10.321Z,3.67
2018-06-24T18:41:43.764Z,3.63
2018-06-24T18:44:23.176Z,5.05
2018-06-24T18:47:02.931Z,4.17
2018-06-24T18:49:37.945Z,3.83
2018-06-24T18:52:12.356Z,5.27
2018-06-24T18:54:50.499Z,4.43
2018-06-24T18:57:35.750Z,4.77
2018-06-24T19:00:27.538Z,5.00
2018-06-24T19:03:07.404Z,4.40
2018-06-24T19:05:43.910Z,4.30
2018-06-24T19:08:26.840Z,5.13
2018-06-24T19:11:03.875Z,4.30
2018-06-24T19:13:39.663Z,3.77
2018-06-24T19:16:18.628Z,3.83
2018-06-24T19:18:55.834Z,3.10
2018-06-24T19:21:33.085Z,4.60
2018-06-24T19:24:06.053Z,5.60
2018-06-24T19:26:42.769Z,4.30
2018-06-24T19:29:18.597Z,5.33
2018-06-24T19:31:55.304Z,5.10
2018-06-24T19:34:35.134Z,4.30
2018-06-24T19:37:16.501Z,5.33
2018-06-24T19:39:54.907Z,4.57
2018-06-24T19:42:35.641Z,4.77
2018-06-24T19:45:15.148Z,5.78
2018-06-24T19:47:53.717Z,5.30
2018-06-24T19:50:28.766Z,5.30
2018-06-24T19:53:03.997Z,5.20
2018-06-24T19:55:42.979Z,5.13
2018-06-24T19:58:18.373Z,7.43
2018-06-24T20:01:01.532Z,7.13
2018-06-24T20:03:35.682Z,6.50
2018-06-24T20:06:16.576Z,6.30
2018-06-24T20:08:52.481Z,6.50
2018-06-24T20:11:29.162Z,5.87
2018-06-24T20:14:02.876Z,4.70
2018-06-24T20:16:36.608Z,4.20
2018-06-24T20:19:11.445Z,3.10
2018-06-24T20:21:44.412Z,2.63
2018-06-24T20:24:23.733Z,3.37
2018-06-24T20:27:05.029Z,2.70
2018-06-24T20:29:43.917Z,2.90
2018-06-24T20:32:22.029Z,3.30
2018-06-24T20:34:58.106Z,3.20
2018-06-24T20:37:34.190Z,4.10
2018-06-24T20:40:08.669Z,4.00
2018-06-24T20:42:43.380Z,3.63
2018-06-24T20:45:19.707Z,4.97
2018-06-24T20:48:20.444Z,4.17
2018-06-24T20:50:58.615Z,4.17
2018-06-24T20:53:35.272Z,3.97
2018-06-24T20:56:09.461Z,3.90
2018-06-24T20:58:44.281Z,3.77
2018-06-24T21:01:27.243Z,3.37
2018-06-24T21:04:02.322Z,3.00
2018-06-24T21:06:38.564Z,2.87
2018-06-24T21:09:18.262Z,2.87
2018-06-24T21:11:51.676Z,2.97
2018-06-24T21:14:35.357Z,2.70
2018-06-24T21:17:08.562Z,3.10
2018-06-24T21:19:51.339Z,2.73
2018-06-24T21:22:31.020Z,2.80
2018-06-24T21:25:11.481Z,2.90
2018-06-24T21:27:59.570Z,2.83
2018-06-24T21:30:36.785Z,3.00
2018-06-24T21:33:12.623Z,2.90
2018-06-24T21:35:55.149Z,2.60
2018-06-24T21:38:30.743Z,2.77
2018-06-24T21:41:05.253Z,2.63
2018-06-24T21:43:43.572Z,2.60
2018-06-24T21:46:41.689Z,2.57
2018-06-24T21:49:28.400Z,2.53
2018-06-24T21:52:07.044Z,2.40
2018-06-24T21:54:41.522Z,2.47
2018-06-24T21:57:17.162Z,2.60
2018-06-24T21:59:51.711Z,3.00
2018-06-24T22:02:28.214Z,3.70
2018-06-24T22:05:03.000Z,3.30
2018-06-24T22:07:37.697Z,3.30
2018-06-24T22:10:10.930Z,3.33
2018-06-24T22:12:50.658Z,2.90
2018-06-24T22:15:25.726Z,2.90
2018-06-24T22:17:58.432Z,3.10
2018-06-24T22:20:33.257Z,2.90
2018-06-24T22:23:19.391Z,2.70
2018-06-24T22:25:54.864Z,2.43
2018-06-24T22:28:29.640Z,3.47
2018-06-24T22:31:05.171Z,3.13
2018-06-24T22:33:37.768Z,3.20
2018-06-24T22:36:15.180Z,3.33
2018-06-24T22:38:48.843Z,3.60
2018-06-24T22:41:21.990Z,3.87
2018-06-24T22:43:55.772Z,4.33
2018-06-24T22:46:30.279Z,4.03
2018-06-24T22:49:02.887Z,4.53
2018-06-24T22:51:36.052Z,4.90
2018-06-24T22:54:09.179Z,5.07
2018-06-24T22:56:42.608Z,5.00
2018-06-24T22:59:37.797Z,5.40
2018-06-24T23:02:11.104Z,6.20
2018-06-24T23:04:43.742Z,5.57
2018-06-24T23:07:17.245Z,4.40
2018-06-24T23:09:50.660Z,4.57
2018-06-24T23:12:23.468Z,4.37
2018-06-24T23:14:57.145Z,5.40
2018-06-24T23:17:34.078Z,4.80
2018-06-24T23:20:09.131Z,4.93
2018-06-24T23:22:44.026Z,5.07
2018-06-24T23:25:19.324Z,5.50
2018-06-24T23:27:53.121Z,5.10
2018-06-24T23:30:34.939Z,4.33
2018-06-24T23:33:10.656Z,4.27
2018-06-24T23:35:45.953Z,4.93
2018-06-24T23:38:18.716Z,5.10
2018-06-24T23:40:51.256Z,5.00
2018-06-24T23:43:27.052Z,4.67
2018-06-24T23:45:59.737Z,5.53
2018-06-24T23:48:35.385Z,5.10
2018-06-24T23:51:07.948Z,4.60
2018-06-24T23:53:40.575Z,6.10
2018-06-24T23:56:14.526Z,5.30
2018-06-24T23:58:46.943Z,5.87
